Time;durP1;ratioP1;P1;durP2;ratioP2;P2;SDS_P1;SDS_P2;PMS_P1;PMS_P2;Temp;Humidity;BMP_temperature;BMP_pressure;BME280_temperature;BME280_humidity;BME280_pressure;Samples;Min_cycle;Max_cycle;Signal;HPM_P1;HPM_P2
2022/09/21 00:01:13;;;;;;;3.98;1.55;;;;;;;11.55;78.95;99943.22;1726151;81;21077;-46
2022/09/21 00:03:41;;;;;;;6.03;2.10;;;;;;;11.57;78.87;99946.54;1727926;81;21101;-46
2022/09/21 00:06:11;;;;;;;4.80;1.92;;;;;;;11.57;78.93;99949.67;1726814;81;21072;-46
2022/09/21 00:08:37;;;;;;;4.42;1.90;;;;;;;11.53;79.02;99942.05;1728504;81;21060;-46
2022/09/21 00:11:05;;;;;;;5.85;1.98;;;;;;;11.53;78.97;99942.50;1726337;81;21060;-46
2022/09/21 00:13:32;;;;;;;4.72;2.00;;;;;;;11.57;78.75;99938.64;1728132;81;21122;-46
2022/09/21 00:15:59;;;;;;;5.50;2.15;;;;;;;11.57;78.67;99937.32;1730428;81;22983;-46
2022/09/21 00:18:27;;;;;;;6.03;2.20;;;;;;;11.55;78.78;99941.91;1725142;81;21050;-46
2022/09/21 00:20:53;;;;;;;4.03;1.70;;;;;;;11.53;78.84;99936.77;1726829;81;21099;-46
2022/09/21 00:23:20;;;;;;;6.33;2.05;;;;;;;11.59;78.79;99939.81;1727030;81;21026;-46
2022/09/21 00:25:46;;;;;;;4.95;2.15;;;;;;;11.58;78.73;99936.33;1724047;81;21113;-46
2022/09/21 00:28:13;;;;;;;4.30;2.10;;;;;;;11.58;78.67;99940.78;1724960;81;21147;-47
2022/09/21 00:30:40;;;;;;;5.87;2.20;;;;;;;11.52;78.82;99940.86;1727799;81;21687;-46
2022/09/21 00:33:06;;;;;;;4.67;2.20;;;;;;;11.48;78.78;99942.09;1727985;81;21058;-46
2022/09/21 00:35:34;;;;;;;4.70;2.17;;;;;;;11.48;78.78;99948.68;1728274;81;21126;-46
2022/09/21 00:38:01;;;;;;;4.20;2.20;;;;;;;11.48;78.91;99946.05;1727375;81;21127;-45
2022/09/21 00:41:56;;;;;;;4.87;2.60;;;;;;;11.53;79.02;99944.68;1783806;78;23401;-48
2022/09/21 00:44:31;;;;;;;7.20;2.62;;;;;;;11.54;78.88;99949.45;1789452;78;21090;-48
2022/09/21 00:47:09;;;;;;;4.83;2.20;;;;;;;11.58;78.87;99939.45;1786164;78;21124;-48
2022/09/21 00:49:36;;;;;;;6.47;2.90;;;;;;;11.58;78.87;99950.00;1767046;78;21013;-48
2022/09/21 00:52:04;;;;;;;6.87;2.33;;;;;;;11.53;78.98;99941.19;1795678;78;21087;-48
2022/09/21 00:54:40;;;;;;;7.25;2.50;;;;;;;11.52;79.03;99947.45;1785282;78;21010;-48
2022/09/21 00:57:07;;;;;;;4.60;2.60;;;;;;;11.57;79.00;99941.27;1784303;78;21111;-49
2022/09/21 00:59:35;;;;;;;5.08;2.60;;;;;;;11.59;78.91;99936.69;1759968;80;21309;-48
2022/09/21 01:02:02;;;;;;;5.40;2.55;;;;;;;11.57;78.75;99937.32;1789074;78;21556;-48
2022/09/21 01:04:29;;;;;;;4.60;2.20;;;;;;;11.50;78.76;99934.41;1782042;78;21679;-48
2022/09/21 01:06:56;;;;;;;5.20;2.62;;;;;;;11.52;78.93;99933.78;1802552;78;21038;-49
2022/09/21 01:09:23;;;;;;;6.92;3.15;;;;;;;11.55;78.87;99935.78;1806175;78;21091;-48
2022/09/21 01:12:04;;;;;;;5.53;2.98;;;;;;;11.55;78.81;99934.00;1791347;78;21128;-48
2022/09/21 01:14:46;;;;;;;5.08;3.05;;;;;;;11.50;78.92;99934.41;1788882;78;21514;-49
2022/09/21 01:17:35;;;;;;;9.08;2.62;;;;;;;11.50;79.12;99944.12;1791683;78;21033;-48
2022/09/21 01:20:35;;;;;;;5.47;2.60;;;;;;;11.51;79.11;99932.11;1760655;80;21113;-48
2022/09/21 01:23:43;;;;;;;6.47;3.30;;;;;;;11.55;79.16;99934.46;1726500;81;21114;-47
2022/09/21 01:26:21;;;;;;;5.28;2.92;;;;;;;11.52;79.23;99925.87;1719081;80;21841;-47
2022/09/21 01:29:12;;;;;;;6.10;3.15;;;;;;;11.53;79.29;99934.60;1745713;80;22448;-46
2022/09/21 01:31:43;;;;;;;5.62;3.45;;;;;;;11.56;79.21;99927.73;1764148;80;21069;-48
2022/09/21 01:34:14;;;;;;;7.80;3.80;;;;;;;11.55;79.25;99928.73;1730571;81;21111;-48
2022/09/21 01:36:41;;;;;;;7.10;4.10;;;;;;;11.52;79.46;99930.32;1758630;80;21031;-49
2022/09/21 01:41:39;;;;;;;8.10;3.98;;;;;;;11.67;79.30;99930.23;1794059;78;23276;-48
2022/09/21 01:44:09;;;;;;;7.87;4.10;;;;;;;11.64;78.87;99935.78;1771144;80;21615;-48
2022/09/21 01:46:36;;;;;;;6.50;3.52;;;;;;;11.63;78.98;99939.41;1764182;80;21091;-47
2022/09/21 01:49:14;;;;;;;7.67;3.67;;;;;;;11.61;78.82;99941.33;1765208;78;21026;-47
2022/09/21 01:51:44;;;;;;;10.32;4.50;;;;;;;11.62;78.66;99940.36;1765322;79;21080;-48
2022/09/21 01:54:19;;;;;;;7.72;4.30;;;;;;;11.65;78.80;99944.05;1766084;80;21561;-48
2022/09/21 01:56:51;;;;;;;6.35;4.33;;;;;;;11.65;78.76;99947.99;1767116;80;21655;-47
2022/09/21 01:59:55;;;;;;;6.05;3.83;;;;;;;11.61;78.67;99945.77;1762934;78;21118;-47
2022/09/21 02:02:39;;;;;;;6.17;3.62;;;;;;;11.61;78.69;99942.64;1770067;79;20987;-48
2022/09/21 02:05:07;;;;;;;10.23;4.60;;;;;;;11.61;78.71;99943.14;1774659;79;20998;-49
2022/09/21 02:07:33;;;;;;;6.85;3.70;;;;;;;11.58;78.87;99942.92;1759746;80;21113;-48
2022/09/21 02:10:01;;;;;;;8.75;4.40;;;;;;;11.59;78.93;99938.50;1772739;80;21632;-47
2022/09/21 02:12:31;;;;;;;7.05;3.70;;;;;;;11.64;78.68;99942.86;1773457;79;21243;-47
2022/09/21 02:14:59;;;;;;;7.30;4.50;;;;;;;11.62;78.35;99944.81;1769638;80;21093;-47
2022/09/21 02:17:44;;;;;;;7.50;3.90;;;;;;;11.54;78.60;99938.91;1766977;80;21132;-47
2022/09/21 02:20:21;;;;;;;9.03;4.17;;;;;;;11.52;78.70;99942.18;1768578;80;21524;-47
2022/09/21 02:23:18;;;;;;;6.70;3.60;;;;;;;11.56;78.72;99944.87;1766866;79;21113;-48
2022/09/21 02:26:11;;;;;;;7.33;4.72;;;;;;;11.61;78.73;99949.73;1767633;80;22115;-47
2022/09/21 02:28:50;;;;;;;7.15;4.35;;;;;;;11.55;78.73;99949.81;1763920;79;21522;-48
2022/09/21 02:32:03;;;;;;;7.75;4.15;;;;;;;11.55;78.88;99952.91;1774561;80;21074;-48
2022/09/21 02:34:44;;;;;;;7.92;4.12;;;;;;;11.59;78.82;99949.04;1765751;80;21109;-48
2022/09/21 02:37:23;;;;;;;7.00;4.25;;;;;;;11.61;78.63;99951.86;1766282;79;21033;-46
2022/09/21 02:40:13;;;;;;;6.67;4.17;;;;;;;11.50;78.74;99952.03;1767412;79;21139;-47
2022/09/21 02:42:41;;;;;;;6.65;4.25;;;;;;;11.46;78.85;99949.31;1763448;80;21053;-48
2022/09/21 02:45:22;;;;;;;8.08;4.87;;;;;;;11.52;78.91;99956.67;1759675;79;21046;-47
2022/09/21 02:48:16;;;;;;;8.60;4.80;;;;;;;11.49;78.77;99955.63;1769854;79;21060;-47
2022/09/21 02:50:55;;;;;;;6.22;3.98;;;;;;;11.41;78.97;99950.22;1756816;80;21080;-47
2022/09/21 02:53:25;;;;;;;7.72;4.72;;;;;;;11.40;79.29;99952.49;1762631;80;21277;-47
2022/09/21 02:55:53;;;;;;;7.53;4.67;;;;;;;11.47;79.23;99954.94;1745292;80;21444;-48
2022/09/21 02:58:19;;;;;;;9.35;4.70;;;;;;;11.49;79.29;99963.53;1743512;80;21157;-47
2022/09/21 03:00:46;;;;;;;7.22;4.47;;;;;;;11.49;79.39;99962.21;1767740;80;20995;-48
2022/09/21 03:03:22;;;;;;;7.03;3.50;;;;;;;11.49;79.30;99956.94;1757361;79;22134;-48
2022/09/21 03:05:49;;;;;;;;;;;;;;;11.55;79.16;99964.77;1768561;79;21654;-48
2022/09/21 03:08:18;;;;;;;7.58;4.85;;;;;;;11.56;79.03;99963.81;1759374;80;20235;-48
2022/09/21 03:10:47;;;;;;;7.92;4.35;;;;;;;11.51;79.11;99966.85;1767166;80;21046;-47
2022/09/21 03:13:13;;;;;;;6.65;3.95;;;;;;;11.45;79.26;99966.94;1758306;79;21042;-48
2022/09/21 03:15:41;;;;;;;6.17;3.90;;;;;;;11.48;79.24;99967.12;1762826;79;21042;-48
2022/09/21 03:18:09;;;;;;;6.55;4.05;;;;;;;11.54;79.20;99965.26;1766488;79;21128;-48
2022/09/21 03:20:44;;;;;;;6.92;4.60;;;;;;;11.54;78.80;99967.89;1765546;80;21019;-48
2022/09/21 03:23:11;;;;;;;7.65;4.75;;;;;;;11.52;79.08;99969.35;1741436;80;21573;-48
2022/09/21 03:25:41;;;;;;;6.50;3.75;;;;;;;11.52;78.66;99968.53;1764607;80;20988;-48
2022/09/21 03:28:09;;;;;;;6.08;3.72;;;;;;;11.58;78.65;99977.67;1765488;80;21055;-47
2022/09/21 03:30:36;;;;;;;7.17;4.65;;;;;;;11.57;78.50;99976.02;1768595;79;21275;-48
2022/09/21 03:33:04;;;;;;;6.72;3.60;;;;;;;11.57;78.62;99978.16;1764078;80;21526;-48
2022/09/21 03:35:32;;;;;;;9.63;3.80;;;;;;;11.54;78.57;99977.12;1765271;80;21074;-46
2022/09/21 03:38:00;;;;;;;6.10;3.70;;;;;;;11.56;78.59;99973.03;1765505;80;21117;-46
2022/09/21 03:40:27;;;;;;;8.98;4.78;;;;;;;11.58;78.29;99975.86;1771673;80;21098;-47
2022/09/21 03:42:53;;;;;;;11.43;5.40;;;;;;;11.57;78.35;99975.53;1758702;80;21203;-47
2022/09/21 03:45:21;;;;;;;8.80;4.62;;;;;;;11.57;78.41;99974.21;1755708;80;21593;-46
2022/09/21 03:47:47;;;;;;;9.50;5.53;;;;;;;11.60;78.11;99983.16;1764892;79;21067;-46
2022/09/21 03:50:14;;;;;;;9.25;5.83;;;;;;;11.59;77.96;99985.94;1759577;79;21558;-47
2022/09/21 03:52:41;;;;;;;12.50;5.75;;;;;;;11.55;77.97;99985.84;1762797;79;21358;-47
2022/09/21 03:55:08;;;;;;;9.85;5.67;;;;;;;11.54;78.13;99986.34;1761598;79;21231;-47
2022/09/21 03:57:35;;;;;;;8.45;5.28;;;;;;;11.58;77.85;99992.98;1755553;80;21039;-47
2022/09/21 04:00:04;;;;;;;13.03;5.60;;;;;;;11.54;77.94;99979.75;1757749;80;21078;-46
2022/09/21 04:02:31;;;;;;;10.85;5.72;;;;;;;11.50;77.77;99990.23;1763293;79;21094;-47
2022/09/21 04:04:58;;;;;;;10.80;5.28;;;;;;;11.43;77.78;99987.32;1761258;79;21082;-46
2022/09/21 04:07:25;;;;;;;11.60;5.92;;;;;;;11.45;78.00;99988.50;1765135;80;21309;-47
2022/09/21 04:09:52;;;;;;;12.20;5.05;;;;;;;11.46;78.13;99992.78;1766574;79;21462;-46
2022/09/21 04:12:22;;;;;;;11.03;5.03;;;;;;;11.43;78.45;99990.42;1766100;80;21056;-47
2022/09/21 04:14:48;;;;;;;12.15;5.67;;;;;;;11.47;78.63;99994.46;1768376;80;21042;-46
2022/09/21 04:17:15;;;;;;;12.88;5.75;;;;;;;11.50;78.30;99998.97;1761779;79;21698;-48
2022/09/21 04:19:44;;;;;;;9.65;6.28;;;;;;;11.48;77.93;99993.47;1763916;80;21718;-48
2022/09/21 04:22:11;;;;;;;8.80;5.22;;;;;;;11.42;77.96;100000.63;1763448;80;21015;-48
2022/09/21 04:24:39;;;;;;;9.33;4.67;;;;;;;11.41;78.23;100002.41;1768626;80;21113;-48
2022/09/21 04:27:08;;;;;;;9.00;5.20;;;;;;;11.47;78.38;99999.73;1766270;80;21048;-48
2022/09/21 04:29:35;;;;;;;12.75;5.70;;;;;;;11.49;78.09;99996.47;1764564;79;21105;-48
2022/09/21 04:32:04;;;;;;;8.58;5.47;;;;;;;11.47;78.19;100001.05;1774397;79;21246;-47
2022/09/21 04:34:31;;;;;;;11.48;5.00;;;;;;;11.43;78.26;100010.18;1768765;80;21125;-48
2022/09/21 04:36:58;;;;;;;11.00;5.33;;;;;;;11.46;78.04;100002.83;1765569;79;21071;-48
2022/09/21 04:39:25;;;;;;;9.05;5.78;;;;;;;11.50;78.09;100002.09;1703835;83;21568;-48
2022/09/21 04:41:51;;;;;;;8.73;5.42;;;;;;;11.54;78.02;100003.47;1753696;80;21118;-48
2022/09/21 04:44:18;;;;;;;12.47;5.22;;;;;;;11.52;77.88;100011.51;1751430;80;21137;-47
2022/09/21 04:46:44;;;;;;;9.75;4.83;;;;;;;11.47;77.82;100003.19;1757117;80;21114;-48
2022/09/21 04:49:11;;;;;;;11.10;5.12;;;;;;;11.50;77.65;100008.19;1755394;80;21051;-49
2022/09/21 04:51:37;;;;;;;9.85;4.62;;;;;;;11.51;77.65;99998.47;1749596;80;21576;-48
2022/09/21 04:54:05;;;;;;;10.85;5.12;;;;;;;11.49;77.30;100007.83;1750312;80;21059;-48
2022/09/21 04:56:33;;;;;;;8.40;5.10;;;;;;;11.45;77.47;100004.31;1763870;80;21903;-47
2022/09/21 04:59:00;;;;;;;9.30;4.75;;;;;;;11.42;77.68;100005.41;1759936;80;21356;-47
2022/09/21 05:01:26;;;;;;;11.33;5.42;;;;;;;11.50;77.75;100001.59;1763990;80;21113;-48
2022/09/21 05:03:53;;;;;;;13.22;6.17;;;;;;;11.52;77.40;100003.60;1762404;80;21470;-48
2022/09/21 05:06:19;;;;;;;13.25;5.90;;;;;;;11.50;77.44;100008.68;1761350;80;21113;-49
2022/09/21 05:11:31;;;;;;;10.85;5.12;;;;;;;11.45;77.28;100014.36;1758899;80;21079;-47
2022/09/21 05:13:57;;;;;;;9.75;5.35;;;;;;;11.48;77.33;100015.41;1746184;80;21050;-48
2022/09/21 05:16:24;;;;;;;8.48;4.90;;;;;;;11.48;77.37;100014.09;1748279;80;21017;-47
2022/09/21 05:18:53;;;;;;;9.05;4.78;;;;;;;11.46;77.28;100018.63;1759957;80;21052;-47
2022/09/21 05:21:20;;;;;;;8.83;5.05;;;;;;;11.45;77.25;100022.26;1756876;80;21142;-47
2022/09/21 05:23:46;;;;;;;7.80;5.22;;;;;;;11.48;76.85;100024.63;1699233;84;21135;-47
2022/09/21 05:26:13;;;;;;;9.95;5.45;;;;;;;11.47;76.71;100020.80;1756284;80;21030;-48
2022/09/21 05:28:40;;;;;;;11.73;5.20;;;;;;;11.42;76.65;100025.16;1754069;80;21079;-47
2022/09/21 05:31:28;;;;;;;9.65;5.20;;;;;;;11.40;76.75;100029.74;1746862;80;21019;-47
2022/09/21 05:34:18;;;;;;;11.97;5.33;;;;;;;11.46;76.79;100033.13;1755263;80;21241;-46
2022/09/21 05:37:02;;;;;;;11.95;6.12;;;;;;;11.46;76.58;100033.62;1678316;83;21102;-46
2022/09/21 05:39:30;;;;;;;12.82;5.75;;;;;;;11.40;76.78;100036.80;1744979;80;20992;-46
2022/09/21 05:41:58;;;;;;;9.48;6.05;;;;;;;11.40;77.05;100036.80;1750582;80;21490;-47
2022/09/21 05:44:25;;;;;;;13.13;6.37;;;;;;;11.42;77.00;100034.38;1757755;79;21015;-46
2022/09/21 05:46:57;;;;;;;10.82;6.53;;;;;;;11.41;76.87;100030.07;1775459;79;21114;-46
2022/09/21 05:49:56;;;;;;;13.28;5.70;;;;;;;11.40;76.89;100035.47;1761183;80;21479;-46
2022/09/21 05:52:49;;;;;;;9.40;5.28;;;;;;;11.38;77.16;100032.16;1766179;80;21118;-47
2022/09/21 05:55:50;;;;;;;9.43;5.85;;;;;;;11.47;77.12;100032.66;1766287;79;21086;-46
2022/09/21 05:58:43;;;;;;;7.85;5.00;;;;;;;11.48;76.88;100035.16;1756172;80;22372;-46
2022/09/21 06:01:53;;;;;;;6.67;3.80;;;;;;;11.46;76.86;100033.13;1759669;80;21137;-46
2022/09/21 06:04:21;;;;;;;7.95;4.37;;;;;;;11.48;76.61;100037.80;1761308;80;21067;-46
2022/09/21 06:06:48;;;;;;;8.40;4.50;;;;;;;11.49;76.67;100042.08;1759628;80;21039;-47
2022/09/21 06:09:15;;;;;;;9.55;4.70;;;;;;;11.47;76.50;100046.66;1773033;80;21090;-46
2022/09/21 06:11:41;;;;;;;7.50;4.35;;;;;;;11.47;76.33;100049.79;1759642;80;21007;-46
2022/09/21 06:14:08;;;;;;;6.90;4.08;;;;;;;11.51;76.45;100045.89;1757127;79;22058;-46
2022/09/21 06:16:41;;;;;;;6.22;3.62;;;;;;;11.53;75.96;100044.80;1778502;80;20980;-46
2022/09/21 06:19:12;;;;;;;5.33;3.15;;;;;;;11.53;76.16;100047.44;1772145;80;21545;-47
2022/09/21 06:21:39;;;;;;;5.80;3.33;;;;;;;11.54;76.32;100053.53;1722716;82;21088;-46
2022/09/21 06:24:05;;;;;;;5.92;2.98;;;;;;;11.60;76.25;100049.04;1774298;80;21426;-46
2022/09/21 06:26:32;;;;;;;8.83;3.33;;;;;;;11.66;76.09;100050.28;1765818;80;21133;-46
2022/09/21 06:28:59;;;;;;;6.62;3.42;;;;;;;11.67;76.13;100058.55;1762444;80;21900;-47
2022/09/21 06:31:26;;;;;;;5.15;2.60;;;;;;;11.70;76.05;100070.11;1753875;80;21478;-47
2022/09/21 06:33:53;;;;;;;4.87;2.58;;;;;;;11.74;76.05;100057.51;1760791;80;21055;-47
2022/09/21 06:36:19;;;;;;;5.85;3.02;;;;;;;11.76;75.51;100064.29;1704955;82;21558;-48
2022/09/21 06:38:45;;;;;;;5.42;2.75;;;;;;;11.73;75.43;100062.42;1764412;79;21860;-46
2022/09/21 06:41:13;;;;;;;4.80;2.70;;;;;;;11.67;75.47;100071.23;1760410;80;21529;-51
2022/09/21 06:43:39;;;;;;;4.42;2.12;;;;;;;11.70;75.11;100066.16;1757141;80;21053;-46
2022/09/21 06:46:06;;;;;;;5.12;2.92;;;;;;;11.74;75.11;100068.05;1765338;80;21125;-46
2022/09/21 06:48:33;;;;;;;6.08;3.05;;;;;;;11.71;74.81;100073.09;1776996;79;21516;-47
2022/09/21 06:51:02;;;;;;;6.47;2.80;;;;;;;11.68;74.96;100075.55;1763185;80;22055;-46
2022/09/21 06:53:31;;;;;;;5.87;3.30;;;;;;;11.71;75.09;100073.92;1760144;80;21122;-46
2022/09/21 06:56:08;;;;;;;5.95;3.05;;;;;;;11.82;74.91;100078.74;1760147;80;21050;-46
2022/09/21 06:58:36;;;;;;;6.25;2.60;;;;;;;11.83;74.48;100077.75;1767170;79;21498;-46
2022/09/21 07:01:08;;;;;;;5.62;2.98;;;;;;;11.84;74.88;100082.89;1760617;80;21112;-46
2022/09/21 07:03:34;;;;;;;6.15;2.92;;;;;;;11.86;75.15;100082.75;1727736;82;21104;-46
2022/09/21 07:06:01;;;;;;;6.15;3.22;;;;;;;11.93;74.87;100081.25;1759456;79;21106;-47
2022/09/21 07:08:28;;;;;;;5.35;2.60;;;;;;;12.00;74.74;100091.61;1765208;79;21029;-46
2022/09/21 07:10:58;;;;;;;6.35;3.10;;;;;;;12.03;74.07;100079.94;1764355;80;21058;-47
2022/09/21 07:13:26;;;;;;;5.50;2.95;;;;;;;12.00;73.99;100080.21;1759734;80;21089;-47
2022/09/21 07:15:53;;;;;;;5.17;3.00;;;;;;;11.97;74.05;100074.74;1765018;79;21440;-46
2022/09/21 07:18:20;;;;;;;4.87;2.65;;;;;;;12.01;74.07;100083.20;1769833;80;21043;-47
2022/09/21 07:20:50;;;;;;;6.08;2.85;;;;;;;12.03;73.94;100086.53;1768451;80;21169;-46
2022/09/21 07:23:17;;;;;;;4.60;2.40;;;;;;;12.01;73.85;100081.39;1760040;80;21097;-47
2022/09/21 07:25:51;;;;;;;4.92;2.10;;;;;;;12.00;74.15;100103.48;1764974;80;21537;-47
2022/09/21 07:28:17;;;;;;;4.40;2.52;;;;;;;12.07;74.05;100092.70;1760252;80;21151;-47
2022/09/21 07:30:44;;;;;;;6.03;2.17;;;;;;;12.16;73.83;100100.27;1725098;82;21118;-47
2022/09/21 07:33:10;;;;;;;7.75;3.02;;;;;;;12.20;73.64;100101.63;1754412;80;21128;-47
2022/09/21 07:35:37;;;;;;;4.47;2.30;;;;;;;12.21;73.46;100102.48;1765456;80;21560;-46
2022/09/21 07:38:06;;;;;;;7.65;2.90;;;;;;;12.21;73.26;100106.45;1756103;80;21517;-46
2022/09/21 07:40:34;;;;;;;4.55;2.47;;;;;;;12.23;73.37;100096.58;1762971;79;21175;-46
2022/09/21 07:43:01;;;;;;;6.60;2.87;;;;;;;12.29;72.99;100096.03;1765606;80;21218;-46
2022/09/21 07:45:29;;;;;;;5.25;2.60;;;;;;;12.35;72.91;100105.17;1759988;80;21085;-46
2022/09/21 07:48:05;;;;;;;4.70;2.60;;;;;;;12.42;72.71;100098.34;1759415;80;21589;-46
2022/09/21 07:50:33;;;;;;;5.65;2.33;;;;;;;12.57;72.13;100097.42;1763136;80;21557;-47
2022/09/21 07:53:01;;;;;;;5.67;2.77;;;;;;;12.72;71.05;100088.06;1759100;80;21836;-46
2022/09/21 07:55:28;;;;;;;6.35;2.67;;;;;;;12.86;70.25;100097.34;1758118;80;21059;-47
2022/09/21 08:00:40;;;;;;;4.53;1.67;;;;;;;13.08;71.12;100091.33;1757832;79;21081;-47
2022/09/21 08:03:06;;;;;;;4.08;1.77;;;;;;;13.30;71.02;100095.41;1761065;80;21078;-48
2022/09/21 08:05:33;;;;;;;4.17;1.90;;;;;;;13.45;69.16;100100.56;1755370;80;21129;-47
2022/09/21 08:08:00;;;;;;;4.33;2.05;;;;;;;13.51;68.64;100099.13;1756430;79;21153;-47
2022/09/21 08:10:28;;;;;;;4.42;2.20;;;;;;;13.54;69.10;100102.80;1762369;79;21029;-46
2022/09/21 08:12:55;;;;;;;5.05;2.40;;;;;;;13.54;67.77;100093.05;1753250;80;21510;-47
2022/09/21 08:15:29;;;;;;;4.53;2.27;;;;;;;13.52;67.61;100095.02;1754250;80;21551;-47
2022/09/21 08:17:57;;;;;;;4.80;2.17;;;;;;;13.44;68.08;100096.75;1761835;80;22028;-46
2022/09/21 08:20:24;;;;;;;4.72;2.00;;;;;;;13.43;68.39;100105.17;1761339;79;21081;-47
2022/09/21 08:22:52;;;;;;;4.20;1.70;;;;;;;13.43;68.67;100107.82;1756260;80;21102;-47
2022/09/21 08:25:19;;;;;;;6.67;2.02;;;;;;;13.50;67.82;100109.34;1760179;79;21040;-47
2022/09/21 08:27:48;;;;;;;4.95;2.10;;;;;;;13.55;67.58;100103.98;1762170;80;21051;-47
2022/09/21 08:30:14;;;;;;;5.03;2.10;;;;;;;13.50;66.97;100099.62;1753978;80;21494;-47
2022/09/21 08:32:41;;;;;;;4.30;1.70;;;;;;;13.37;67.59;100107.08;1755961;80;21130;-47
2022/09/21 08:35:08;;;;;;;3.40;1.47;;;;;;;13.22;68.45;100104.56;1762173;79;21486;-46
2022/09/21 08:37:36;;;;;;;3.15;1.30;;;;;;;13.13;68.99;100111.06;1767731;80;21110;-48
2022/09/21 08:40:05;;;;;;;3.87;1.70;;;;;;;13.05;68.88;100104.35;1776459;79;21047;-47
2022/09/21 08:42:43;;;;;;;6.62;2.08;;;;;;;12.95;69.06;100110.98;1743949;81;21222;-47
2022/09/21 08:45:15;;;;;;;4.92;2.15;;;;;;;12.85;70.43;100114.16;1743087;81;21057;-47
2022/09/21 08:47:55;;;;;;;4.47;1.95;;;;;;;12.80;70.78;100107.98;1742319;80;21086;-47
2022/09/21 08:50:36;;;;;;;4.85;2.35;;;;;;;12.82;71.09;100125.00;1757961;80;21043;-47
2022/09/21 08:53:07;;;;;;;5.60;2.10;;;;;;;12.79;71.22;100124.81;1747970;81;21074;-47
2022/09/21 08:55:33;;;;;;;6.22;2.55;;;;;;;12.78;71.23;100127.09;1742590;80;21199;-49
2022/09/21 08:58:00;;;;;;;7.45;2.42;;;;;;;12.86;71.16;100129.50;1737467;81;21060;-47
2022/09/21 09:00:27;;;;;;;5.80;2.47;;;;;;;12.92;71.24;100130.25;1742939;80;21122;-47
2022/09/21 09:03:19;;;;;;;4.33;2.20;;;;;;;12.97;70.92;100137.25;1750358;80;21558;-47
2022/09/21 09:06:06;;;;;;;5.97;2.42;;;;;;;13.00;71.05;100130.37;1767573;81;21047;-46
2022/09/21 09:08:56;;;;;;;6.37;2.60;;;;;;;13.07;70.89;100132.77;1746445;81;21956;-46
2022/09/21 09:11:45;;;;;;;5.67;2.62;;;;;;;13.14;69.76;100132.52;1750938;80;21007;-46
2022/09/21 09:14:31;;;;;;;7.35;3.17;;;;;;;13.11;69.05;100130.20;1756957;81;21062;-46
2022/09/21 09:17:24;;;;;;;6.45;2.45;;;;;;;13.04;69.70;100136.19;1740642;80;21557;-46
2022/09/21 09:20:06;;;;;;;7.50;2.80;;;;;;;13.03;69.02;100130.09;1751488;80;21062;-46
2022/09/21 09:23:06;;;;;;;5.10;2.65;;;;;;;13.11;69.31;100136.80;1741699;80;21079;-46
2022/09/21 09:25:40;;;;;;;6.67;2.60;;;;;;;13.13;69.25;100133.52;1747206;81;21539;-46
2022/09/21 09:28:29;;;;;;;5.03;2.37;;;;;;;13.06;69.03;100135.05;1743741;81;21366;-48
2022/09/21 09:31:16;;;;;;;4.80;2.45;;;;;;;13.04;69.19;100135.69;1729588;81;21014;-46
2022/09/21 09:34:00;;;;;;;6.08;2.67;;;;;;;13.13;68.81;100144.55;1737567;81;21042;-46
2022/09/21 09:36:34;;;;;;;7.53;3.02;;;;;;;13.09;68.83;100136.09;1743908;80;21992;-46
2022/09/21 09:39:04;;;;;;;7.72;2.65;;;;;;;13.13;68.96;100140.59;1718363;82;21596;-46
2022/09/21 09:42:27;;;;;;;7.62;2.58;;;;;;;13.12;68.47;100143.73;1746044;80;21023;-46
2022/09/21 09:45:32;;;;;;;5.25;2.37;;;;;;;13.17;68.52;100142.80;1747263;80;21554;-46
2022/09/21 09:48:22;;;;;;;4.60;2.52;;;;;;;13.26;68.59;100138.45;1743628;80;21070;-46
2022/09/21 09:50:49;;;;;;;4.83;2.40;;;;;;;13.29;67.89;100149.23;1740342;81;21152;-45
2022/09/21 09:53:22;;;;;;;5.60;2.42;;;;;;;13.24;67.94;100157.58;1745435;80;20983;-46
2022/09/21 09:55:52;;;;;;;4.45;2.05;;;;;;;13.22;68.28;100153.44;1762016;80;21073;-46
2022/09/21 09:58:29;;;;;;;5.60;2.22;;;;;;;13.22;68.56;100152.94;1759083;80;21039;-46
2022/09/21 10:00:56;;;;;;;4.58;1.95;;;;;;;13.19;69.02;100155.37;1747824;80;21062;-46
2022/09/21 10:03:24;;;;;;;4.90;2.40;;;;;;;13.14;69.37;100158.11;1749000;81;21148;-47
2022/09/21 10:05:51;;;;;;;5.28;2.10;;;;;;;13.05;69.80;100153.72;1759346;81;21091;-46
2022/09/21 10:08:42;;;;;;;4.83;1.95;;;;;;;13.02;70.17;100153.50;1745169;80;21085;-46
2022/09/21 10:11:11;;;;;;;5.42;2.52;;;;;;;12.99;70.12;100157.28;1745042;81;21078;-46
2022/09/21 10:13:40;;;;;;;4.60;2.20;;;;;;;12.94;70.55;100164.77;1741080;80;21034;-46
2022/09/21 10:16:21;;;;;;;6.30;2.12;;;;;;;12.90;71.00;100158.63;1746435;80;21108;-46
2022/09/21 10:18:55;;;;;;;4.95;2.17;;;;;;;12.93;71.18;100162.30;1741578;80;21114;-46
2022/09/21 10:21:37;;;;;;;5.53;2.70;;;;;;;12.97;71.63;100163.17;1755802;80;21074;-47
2022/09/21 10:24:07;;;;;;;4.97;2.30;;;;;;;12.99;72.00;100165.20;1755701;81;21625;-46
2022/09/21 10:26:38;;;;;;;5.08;2.60;;;;;;;13.02;71.73;100158.78;1699483;82;21635;-46
2022/09/21 10:29:25;;;;;;;5.30;2.47;;;;;;;13.05;70.54;100157.17;1701544;82;21806;-46
2022/09/21 10:31:59;;;;;;;8.53;2.50;;;;;;;13.06;70.02;100158.83;1673097;84;21129;-47
2022/09/21 10:34:30;;;;;;;4.60;2.15;;;;;;;13.02;69.52;100165.39;1706375;82;21066;-46
2022/09/21 10:36:59;;;;;;;5.53;1.90;;;;;;;12.98;69.16;100170.13;1678164;83;21134;-46
2022/09/21 10:39:32;;;;;;;4.15;1.87;;;;;;;13.04;68.91;100174.48;1674711;84;21103;-46
2022/09/21 10:42:05;;;;;;;4.67;1.90;;;;;;;13.08;68.11;100178.49;1699073;82;21682;-47
2022/09/21 10:44:42;;;;;;;4.72;2.15;;;;;;;13.06;67.79;100175.99;1663715;84;21092;-46
2022/09/21 10:47:34;;;;;;;3.98;1.87;;;;;;;13.10;68.20;100177.39;1659967;84;21534;-46
2022/09/21 10:50:06;;;;;;;4.70;1.90;;;;;;;13.14;68.22;100176.11;1656110;85;21189;-46
2022/09/21 10:52:35;;;;;;;6.95;2.12;;;;;;;13.20;67.63;100178.68;1672487;84;21158;-47
2022/09/21 10:55:01;;;;;;;5.58;2.00;;;;;;;13.17;67.05;100181.61;1677639;84;21254;-47
2022/09/21 10:57:28;;;;;;;6.58;2.55;;;;;;;13.12;68.24;100177.25;1681360;84;21074;-47
2022/09/21 10:59:56;;;;;;;3.95;2.00;;;;;;;13.13;69.27;100188.14;1677627;84;21075;-47
2022/09/21 11:02:37;;;;;;;4.55;1.98;;;;;;;13.15;69.29;100178.28;1673525;84;21119;-46
2022/09/21 11:05:15;;;;;;;5.08;1.82;;;;;;;13.12;68.15;100181.21;1678100;84;21144;-46
2022/09/21 11:08:05;;;;;;;4.22;2.00;;;;;;;13.10;68.51;100187.13;1677291;83;21155;-46
2022/09/21 11:11:02;;;;;;;5.90;2.00;;;;;;;13.03;68.59;100180.27;1682313;84;21126;-46
2022/09/21 11:13:45;;;;;;;3.75;1.62;;;;;;;13.07;69.13;100182.95;1690364;84;21090;-46
2022/09/21 11:16:32;;;;;;;3.83;1.80;;;;;;;13.07;69.04;100184.27;1692440;84;21110;-47
2022/09/21 11:19:30;;;;;;;3.95;1.62;;;;;;;12.99;69.19;100178.41;1671470;84;21073;-46
2022/09/21 11:22:31;;;;;;;3.95;1.67;;;;;;;12.96;69.85;100176.05;1662283;85;21849;-46
2022/09/21 11:25:30;;;;;;;6.25;1.67;;;;;;;13.04;69.36;100174.48;1667220;85;21634;-46
2022/09/21 11:28:12;;;;;;;5.53;2.37;;;;;;;13.08;69.05;100175.85;1687825;83;21122;-46
2022/09/21 11:30:56;;;;;;;3.62;1.75;;;;;;;13.08;69.05;100175.85;1693441;83;21071;-46
2022/09/21 11:33:52;;;;;;;5.28;2.05;;;;;;;13.04;68.87;100175.31;1650134;83;21511;-46
2022/09/21 11:36:47;;;;;;;5.73;1.93;;;;;;;13.08;68.91;100178.03;1663029;85;21130;-46
2022/09/21 11:39:45;;;;;;;4.37;2.02;;;;;;;13.15;68.85;100181.75;1683898;83;21121;-46
2022/09/21 11:42:17;;;;;;;4.25;1.87;;;;;;;13.17;68.51;100185.56;1681847;84;21139;-47
2022/09/21 11:44:54;;;;;;;4.45;2.22;;;;;;;13.15;68.67;100184.39;1697905;83;21102;-46
2022/09/21 11:47:56;;;;;;;4.60;2.10;;;;;;;13.17;69.09;100187.71;1695217;82;21097;-47
2022/09/21 11:51:01;;;;;;;5.40;2.10;;;;;;;13.26;68.99;100186.50;1694096;82;21332;-46
2022/09/21 11:53:56;;;;;;;4.20;1.80;;;;;;;13.35;68.92;100187.83;1574967;89;21147;-47
2022/09/21 11:56:34;;;;;;;5.17;2.25;;;;;;;13.39;69.25;100185.72;1688033;84;21494;-46
2022/09/21 11:59:33;;;;;;;5.85;2.33;;;;;;;13.40;68.96;100182.11;1736486;80;21652;-46
2022/09/21 12:02:39;;;;;;;5.50;2.45;;;;;;;13.41;68.92;100178.47;1736927;80;21074;-47
2022/09/21 12:05:30;;;;;;;4.20;2.10;;;;;;;13.47;68.97;100183.18;1734154;81;21138;-47
2022/09/21 12:08:27;;;;;;;5.17;2.85;;;;;;;13.59;68.80;100178.53;1731787;80;21409;-48